Time;durP1;ratioP1;P1;durP2;ratioP2;P2;SDS_P1;SDS_P2;PMS_P1;PMS_P2;Temp;Humidity;BMP_temperature;BMP_pressure;BME280_temperature;BME280_humidity;BME280_pressure;Samples;Min_cycle;Max_cycle;Signal;HPM_P1;HPM_P2
2021/11/01 00:04:55;;;;;;;32.60;19.70;;;;;;;;;;5018945;28;20028;-85
2021/11/01 00:07:21;;;;;;;35.20;21.48;;;;;;;;;;5001418;28;20033;-85
2021/11/01 00:09:47;;;;;;;34.40;20.30;;;;;;;;;;5019066;28;20130;-85
2021/11/01 00:12:13;;;;;;;31.13;20.02;;;;;;;;;;5018673;28;20061;-85
2021/11/01 00:14:40;;;;;;;31.00;19.55;;;;;;;;;;5000744;28;20040;-85
2021/11/01 00:17:25;;;;;;;38.20;22.20;;;;;;;;;;5017511;28;20101;-85
2021/11/01 00:19:51;;;;;;;35.40;20.83;;;;;;;;;;5028811;28;20061;-85
2021/11/01 00:22:17;;;;;;;38.10;21.40;;;;;;;;;;5038053;28;20025;-85
2021/11/01 00:24:43;;;;;;;40.20;21.92;;;;;;;;;;5038426;28;20071;-85
2021/11/01 00:27:09;;;;;;;39.78;22.23;;;;;;;;;;5037898;28;20100;-85
2021/11/01 00:29:35;;;;;;;37.22;22.40;;;;;;;;;;5037977;28;20022;-85
2021/11/01 00:32:01;;;;;;;32.95;20.45;;;;;;;;;;5038030;28;20022;-84
2021/11/01 00:34:27;;;;;;;31.98;20.58;;;;;;;;;;5037990;28;20104;-85
2021/11/01 00:36:54;;;;;;;37.58;21.58;;;;;;;;;;5038339;28;20021;-85
2021/11/01 00:39:22;;;;;;;32.58;20.13;;;;;;;;;;5020417;28;20034;-85
2021/11/01 00:41:48;;;;;;;29.05;18.73;;;;;;;;;;5037702;28;20101;-85
2021/11/01 00:44:14;;;;;;;33.40;19.52;;;;;;;;;;5037454;28;20025;-85
2021/11/01 00:50:03;;;;;;;29.83;19.35;;;;;;;;;;5038154;28;20039;-85
2021/11/01 00:52:30;;;;;;;31.10;19.75;;;;;;;;;;5037707;28;20021;-85
2021/11/01 00:55:05;;;;;;;32.42;20.33;;;;;;;;;;5038023;28;20018;-85
2021/11/01 00:57:31;;;;;;;36.33;21.40;;;;;;;;;;5037388;28;20053;-85
2021/11/01 00:59:59;;;;;;;33.72;19.95;;;;;;;;;;5020035;28;20025;-84
2021/11/01 01:02:26;;;;;;;32.65;19.40;;;;;;;;;;5037687;28;20061;-85
2021/11/01 01:04:52;;;;;;;30.90;19.55;;;;;;;;;;5037146;28;20037;-85
2021/11/01 01:07:18;;;;;;;29.95;19.73;;;;;;;;;;5037405;28;20105;-84
2021/11/01 01:09:44;;;;;;;31.17;18.50;;;;;;;;;;5037531;28;20095;-84
2021/11/01 01:12:11;;;;;;;30.13;18.80;;;;;;;;;;5019055;28;20444;-84
2021/11/01 01:14:49;;;;;;;31.02;20.17;;;;;;;;;;5036917;28;20022;-84
2021/11/01 01:17:15;;;;;;;27.42;18.23;;;;;;;;;;5037157;28;20034;-84
2021/11/01 01:22:46;;;;;;;28.05;18.50;;;;;;;;;;4938358;29;20071;-84
2021/11/01 01:25:30;;;;;;;28.95;18.77;;;;;;;;;;4938613;29;20063;-84
2021/11/01 01:27:57;;;;;;;28.52;17.92;;;;;;;;;;4937928;29;20439;-84
2021/11/01 01:30:25;;;;;;;25.30;17.05;;;;;;;;;;4922462;29;20032;-84
2021/11/01 01:32:51;;;;;;;28.55;17.38;;;;;;;;;;4938221;29;20122;-84
2021/11/01 01:35:18;;;;;;;30.58;18.20;;;;;;;;;;4939707;29;20055;-83
2021/11/01 01:37:44;;;;;;;25.95;18.02;;;;;;;;;;4922295;29;20043;-84
2021/11/01 01:40:11;;;;;;;27.98;17.92;;;;;;;;;;4946917;29;20075;-84
2021/11/01 01:42:38;;;;;;;27.63;17.23;;;;;;;;;;4947340;29;20028;-84
2021/11/01 01:45:07;;;;;;;27.23;16.60;;;;;;;;;;4938118;29;20039;-84
2021/11/01 01:47:53;;;;;;;26.75;16.67;;;;;;;;;;4947871;29;20035;-84
2021/11/01 01:50:19;;;;;;;30.40;17.88;;;;;;;;;;4938717;29;20032;-84
2021/11/01 01:52:48;;;;;;;26.35;16.13;;;;;;;;;;4972725;28;20317;-84
2021/11/01 01:55:15;;;;;;;30.88;18.05;;;;;;;;;;5025319;28;20029;-83
2021/11/01 01:57:41;;;;;;;28.00;17.25;;;;;;;;;;5022856;28;20092;-84
2021/11/01 02:00:16;;;;;;;34.50;18.45;;;;;;;;;;5040923;28;20025;-84
2021/11/01 02:02:43;;;;;;;26.67;16.95;;;;;;;;;;5015556;28;20029;-84
2021/11/01 02:05:09;;;;;;;31.50;16.63;;;;;;;;;;5020959;28;20041;-84
2021/11/01 02:07:42;;;;;;;28.55;16.90;;;;;;;;;;5029248;28;20033;-84
2021/11/01 02:10:08;;;;;;;28.08;16.40;;;;;;;;;;5040722;28;20071;-85
2021/11/01 02:12:37;;;;;;;27.92;16.58;;;;;;;;;;5040289;28;20029;-84
2021/11/01 02:15:10;;;;;;;26.90;15.95;;;;;;;;;;5040721;28;20056;-84
2021/11/01 02:17:56;;;;;;;27.08;16.05;;;;;;;;;;5022713;28;20121;-84
2021/11/01 02:20:30;;;;;;;24.00;15.82;;;;;;;;;;5040145;28;20065;-84
2021/11/01 02:22:56;;;;;;;24.08;15.40;;;;;;;;;;5040246;28;20033;-84
2021/11/01 02:25:27;;;;;;;24.60;15.18;;;;;;;;;;5022894;28;20072;-83
2021/11/01 02:27:53;;;;;;;24.08;14.98;;;;;;;;;;5039829;28;20029;-84
2021/11/01 02:30:20;;;;;;;25.50;16.38;;;;;;;;;;5040462;28;20044;-84
2021/11/01 02:32:46;;;;;;;22.95;15.68;;;;;;;;;;5040296;28;20106;-84
2021/11/01 02:35:13;;;;;;;22.35;15.13;;;;;;;;;;5039994;28;20021;-84
2021/11/01 02:37:40;;;;;;;26.13;15.20;;;;;;;;;;5040423;28;20021;-84
2021/11/01 02:40:09;;;;;;;22.80;14.82;;;;;;;;;;5040268;28;20037;-84
2021/11/01 02:42:35;;;;;;;27.10;16.00;;;;;;;;;;5039627;28;20068;-84
2021/11/01 02:45:02;;;;;;;23.23;15.18;;;;;;;;;;5040112;28;20063;-84
2021/11/01 02:47:29;;;;;;;24.08;15.68;;;;;;;;;;5039760;28;20026;-84
2021/11/01 02:49:58;;;;;;;22.45;15.70;;;;;;;;;;5039817;28;20021;-84
2021/11/01 02:52:25;;;;;;;21.08;14.73;;;;;;;;;;5039892;28;20099;-85
2021/11/01 02:54:51;;;;;;;23.33;14.95;;;;;;;;;;5039971;28;20439;-84
2021/11/01 02:57:18;;;;;;;22.27;14.32;;;;;;;;;;5039966;28;20044;-86
2021/11/01 02:59:44;;;;;;;22.90;14.98;;;;;;;;;;5022377;28;20053;-85
2021/11/01 03:05:16;;;;;;;24.90;14.48;;;;;;;;;;5039919;28;20025;-84
2021/11/01 03:07:42;;;;;;;26.08;15.52;;;;;;;;;;5039578;28;20093;-85
2021/11/01 03:10:09;;;;;;;27.35;15.93;;;;;;;;;;5039643;28;20037;-85
2021/11/01 03:12:35;;;;;;;25.45;15.20;;;;;;;;;;5039665;28;20025;-86
2021/11/01 03:15:03;;;;;;;22.80;15.32;;;;;;;;;;5021808;28;20045;-86
2021/11/01 03:17:30;;;;;;;23.60;15.10;;;;;;;;;;5038948;28;20108;-86
2021/11/01 03:20:01;;;;;;;24.67;15.18;;;;;;;;;;5021293;28;20041;-85
2021/11/01 03:22:31;;;;;;;22.80;15.00;;;;;;;;;;5021720;28;20124;-83
2021/11/01 03:24:59;;;;;;;23.77;15.50;;;;;;;;;;5039247;28;20335;-84
2021/11/01 03:27:27;;;;;;;25.20;15.40;;;;;;;;;;5021618;28;20092;-84
2021/11/01 03:29:53;;;;;;;27.27;16.25;;;;;;;;;;5039541;28;20029;-85
2021/11/01 03:32:56;;;;;;;27.02;16.10;;;;;;;;;;5039438;28;20036;-85
2021/11/01 03:35:25;;;;;;;31.60;16.92;;;;;;;;;;5039023;28;20022;-86
2021/11/01 03:37:53;;;;;;;31.75;16.08;;;;;;;;;;5021378;28;20029;-86
2021/11/01 03:40:20;;;;;;;31.38;17.20;;;;;;;;;;5039174;28;20428;-86
2021/11/01 03:42:53;;;;;;;23.75;15.38;;;;;;;;;;5039091;28;20316;-85
2021/11/01 03:45:21;;;;;;;28.80;16.17;;;;;;;;;;5039100;28;20075;-85
2021/11/01 03:47:49;;;;;;;25.42;15.13;;;;;;;;;;5021373;28;20049;-85
2021/11/01 03:50:30;;;;;;;28.38;16.55;;;;;;;;;;5021124;28;20064;-86
2021/11/01 03:52:57;;;;;;;30.67;17.20;;;;;;;;;;5038946;28;20026;-85
2021/11/01 03:55:28;;;;;;;27.27;16.98;;;;;;;;;;5038715;28;20041;-84
2021/11/01 03:57:55;;;;;;;27.58;16.20;;;;;;;;;;5021062;28;20029;-84
2021/11/01 04:00:24;;;;;;;25.58;15.77;;;;;;;;;;5038475;28;20417;-84
2021/11/01 04:02:50;;;;;;;29.67;16.70;;;;;;;;;;5020960;28;20033;-84
2021/11/01 04:05:16;;;;;;;26.80;16.80;;;;;;;;;;5038622;28;20104;-84
2021/11/01 04:07:44;;;;;;;29.92;16.55;;;;;;;;;;5038334;28;20025;-84
2021/11/01 04:10:10;;;;;;;33.83;17.45;;;;;;;;;;5038823;28;20025;-84
2021/11/01 04:12:37;;;;;;;36.42;17.75;;;;;;;;;;5038363;28;20026;-83
2021/11/01 04:15:10;;;;;;;38.90;19.40;;;;;;;;;;5020170;28;20047;-84
2021/11/01 04:18:02;;;;;;;32.15;17.63;;;;;;;;;;5037743;28;20424;-84
2021/11/01 04:23:00;;;;;;;39.47;18.45;;;;;;;;;;5038187;28;20021;-84
2021/11/01 04:25:28;;;;;;;40.45;18.58;;;;;;;;;;5038287;28;20028;-85
2021/11/01 04:27:56;;;;;;;33.03;17.50;;;;;;;;;;5037864;28;20530;-85
2021/11/01 04:30:22;;;;;;;34.05;18.23;;;;;;;;;;5020262;28;20348;-85
2021/11/01 04:32:53;;;;;;;36.60;17.83;;;;;;;;;;5038413;28;20022;-84
2021/11/01 04:35:28;;;;;;;37.35;19.27;;;;;;;;;;5038035;28;20297;-85
2021/11/01 04:43:35;;;;;;;44.03;20.80;;;;;;;;;;4977106;28;20090;-83
2021/11/01 04:54:34;;;;;;;33.15;19.73;;;;;;;;;;4977413;28;20073;-84
2021/11/01 04:57:01;;;;;;;34.55;19.35;;;;;;;;;;4960931;28;20094;-84
2021/11/01 04:59:28;;;;;;;37.25;21.52;;;;;;;;;;4964239;28;20042;-84
2021/11/01 05:01:55;;;;;;;49.70;26.10;;;;;;;;;;4963230;28;20033;-84
2021/11/01 05:07:27;;;;;;;42.35;23.85;;;;;;;;;;4957730;29;20330;-84
2021/11/01 05:12:39;;;;;;;36.13;20.58;;;;;;;;;;4957562;28;20538;-85
2021/11/01 05:18:29;;;;;;;44.83;22.38;;;;;;;;;;4935029;29;20398;-84
2021/11/01 05:25:59;;;;;;;50.38;25.38;;;;;;;;;;4956886;29;20106;-84
2021/11/01 05:33:49;;;;;;;54.17;27.67;;;;;;;;;;4976728;28;20023;-85
2021/11/01 05:36:16;;;;;;;43.88;24.70;;;;;;;;;;4976318;28;20034;-84
2021/11/01 05:38:42;;;;;;;53.92;25.08;;;;;;;;;;4976713;28;20117;-85
2021/11/01 05:41:08;;;;;;;70.10;32.15;;;;;;;;;;4976483;28;20047;-84
2021/11/01 05:43:34;;;;;;;83.18;36.03;;;;;;;;;;4976491;28;20031;-83
2021/11/01 05:46:01;;;;;;;73.47;31.92;;;;;;;;;;4976138;28;20035;-84
2021/11/01 05:48:27;;;;;;;56.08;28.58;;;;;;;;;;4960075;28;20446;-84
2021/11/01 05:50:53;;;;;;;41.55;22.95;;;;;;;;;;4976500;28;20318;-84
2021/11/01 05:53:20;;;;;;;38.10;22.40;;;;;;;;;;4980361;28;20030;-84
2021/11/01 05:56:12;;;;;;;33.35;20.75;;;;;;;;;;5019127;28;20532;-83
2021/11/01 05:58:50;;;;;;;29.40;18.98;;;;;;;;;;5019031;28;20033;-84
2021/11/01 06:14:36;;;;;;;30.60;19.02;;;;;;;;;;5037130;28;20079;-86
2021/11/01 06:17:03;;;;;;;31.73;19.92;;;;;;;;;;5036649;28;20100;-85
2021/11/01 06:19:29;;;;;;;35.58;20.58;;;;;;;;;;5036206;28;20459;-85
2021/11/01 06:21:55;;;;;;;38.13;21.73;;;;;;;;;;5036831;28;20021;-85
2021/11/01 06:27:10;;;;;;;30.17;20.25;;;;;;;;;;5037075;28;20056;-85
2021/11/01 06:32:33;;;;;;;32.53;19.98;;;;;;;;;;4976123;28;20034;-85
2021/11/01 06:51:39;;;;;;;30.30;19.42;;;;;;;;;;4979624;28;20026;-85
2021/11/01 07:16:09;;;;;;;37.10;22.10;;;;;;;;;;4940401;29;20164;-80
2021/11/01 07:18:43;;;;;;;41.22;22.90;;;;;;;;;;4939441;29;20070;-81
2021/11/01 08:45:09;;;;;;;34.85;20.08;;;;;;;;;;4919529;29;20060;-80
2021/11/01 09:20:02;;;;;;;26.88;18.55;;;;;;;;;;4936719;29;20122;-80
2021/11/01 09:27:41;;;;;;;23.80;17.13;;;;;;;;;;4956916;29;20028;-80
2021/11/01 09:30:24;;;;;;;31.17;17.25;;;;;;;;;;4956994;29;20404;-80
2021/11/01 09:35:57;;;;;;;23.92;17.25;;;;;;;;;;4957267;29;20046;-80
2021/11/01 09:40:58;;;;;;;25.92;16.75;;;;;;;;;;4956919;29;20028;-80
2021/11/01 09:43:25;;;;;;;26.63;17.75;;;;;;;;;;4977592;28;20326;-80
2021/11/01 09:46:01;;;;;;;33.53;18.17;;;;;;;;;;4997370;28;20077;-80
2021/11/01 09:48:28;;;;;;;29.70;17.73;;;;;;;;;;4997347;28;20105;-80
2021/11/01 09:50:55;;;;;;;24.52;18.05;;;;;;;;;;4996371;28;20026;-81
2021/11/01 09:53:29;;;;;;;31.70;18.33;;;;;;;;;;4997353;28;20015;-80
2021/11/01 10:01:14;;;;;;;31.83;18.33;;;;;;;;;;4997502;28;20049;-80
2021/11/01 10:03:48;;;;;;;33.00;19.35;;;;;;;;;;4997214;28;20034;-80
2021/11/01 10:06:18;;;;;;;25.75;19.10;;;;;;;;;;4997168;28;20113;-80
2021/11/01 10:08:58;;;;;;;37.22;19.45;;;;;;;;;;4997076;28;20101;-80
2021/11/01 10:11:25;;;;;;;26.55;16.88;;;;;;;;;;4997663;28;20046;-80
2021/11/01 10:14:10;;;;;;;27.05;19.00;;;;;;;;;;5000956;28;20054;-80
2021/11/01 10:19:28;;;;;;;26.42;17.88;;;;;;;;;;5006402;28;20096;-81
2021/11/01 10:21:56;;;;;;;23.55;17.73;;;;;;;;;;5020607;28;20029;-81
2021/11/01 10:24:24;;;;;;;47.40;26.45;;;;;;;;;;5003071;28;20306;-80
2021/11/01 10:26:51;;;;;;;37.35;19.92;;;;;;;;;;5020468;28;20075;-80
2021/11/01 10:29:17;;;;;;;25.73;16.90;;;;;;;;;;5020217;28;20037;-81
2021/11/01 10:31:44;;;;;;;22.83;17.38;;;;;;;;;;5019742;28;20052;-81
2021/11/01 10:34:11;;;;;;;22.98;16.15;;;;;;;;;;5020120;28;20026;-81
2021/11/01 10:36:38;;;;;;;26.80;18.45;;;;;;;;;;5020384;28;20026;-82
2021/11/01 10:39:06;;;;;;;30.98;17.70;;;;;;;;;;5020029;28;20161;-81
2021/11/01 10:41:50;;;;;;;20.65;15.68;;;;;;;;;;5002575;28;20029;-81
2021/11/01 11:11:43;;;;;;;33.58;20.50;;;;;;;;;;5019697;28;20044;-81
2021/11/01 11:24:45;;;;;;;27.23;18.20;;;;;;;;;;5017936;28;20034;-82
2021/11/01 11:41:02;;;;;;;27.58;19.00;;;;;;;;;;4959125;29;20035;-81
2021/11/01 11:48:50;;;;;;;32.00;20.60;;;;;;;;;;4958802;29;20039;-81
2021/11/01 11:51:16;;;;;;;34.22;21.95;;;;;;;;;;4958229;29;20035;-81
2021/11/01 11:54:00;;;;;;;32.13;21.02;;;;;;;;;;4957914;29;20032;-81
2021/11/01 11:56:30;;;;;;;34.60;20.58;;;;;;;;;;4958432;29;20035;-81
2021/11/01 11:58:58;;;;;;;25.95;18.50;;;;;;;;;;4958320;29;20034;-81
2021/11/01 12:01:28;;;;;;;28.73;21.15;;;;;;;;;;4958325;29;20037;-80
2021/11/01 12:03:55;;;;;;;27.95;19.33;;;;;;;;;;4958092;29;20054;-81
2021/11/01 12:06:23;;;;;;;36.10;20.85;;;;;;;;;;4958217;29;20037;-81
2021/11/01 12:08:57;;;;;;;25.58;18.30;;;;;;;;;;4969513;28;20073;-81
2021/11/01 12:12:04;;;;;;;30.77;19.13;;;;;;;;;;5000935;28;20030;-83
2021/11/01 12:17:16;;;;;;;31.10;19.70;;;;;;;;;;5018933;28;20045;-81
2021/11/01 12:19:42;;;;;;;32.10;19.95;;;;;;;;;;5018456;28;20069;-80
2021/11/01 12:22:12;;;;;;;25.73;18.95;;;;;;;;;;5018334;28;20030;-86
2021/11/01 12:24:38;;;;;;;83.20;35.83;;;;;;;;;;5000630;28;20442;-81
2021/11/01 12:27:09;;;;;;;365.83;145.20;;;;;;;;;;5000105;28;20072;-81
2021/11/01 12:29:36;;;;;;;50.00;27.63;;;;;;;;;;5017857;28;20030;-82
2021/11/01 12:32:08;;;;;;;35.03;22.65;;;;;;;;;;5018024;28;20401;-81
2021/11/01 12:34:38;;;;;;;;;;;;;;;;;;5018193;28;20324;-80
2021/11/01 12:37:11;;;;;;;38.97;21.52;;;;;;;;;;5018142;28;19906;-80
2021/11/01 12:39:41;;;;;;;35.28;22.52;;;;;;;;;;5017985;28;20030;-80
2021/11/01 12:58:32;;;;;;;40.67;23.00;;;;;;;;;;5017641;28;20057;-80
2021/11/01 13:01:05;;;;;;;34.13;20.75;;;;;;;;;;5000066;28;20336;-81
2021/11/01 13:03:31;;;;;;;29.02;20.90;;;;;;;;;;5017613;28;20022;-81
2021/11/01 13:06:06;;;;;;;32.78;19.40;;;;;;;;;;5017509;28;20096;-81
2021/11/01 13:08:37;;;;;;;35.35;22.63;;;;;;;;;;5017165;28;20038;-81
2021/11/01 13:11:15;;;;;;;35.17;22.33;;;;;;;;;;4999635;28;20038;-81
2021/11/01 13:14:13;;;;;;;28.50;18.95;;;;;;;;;;5017428;28;20018;-81
2021/11/01 13:19:20;;;;;;;26.85;19.20;;;;;;;;;;5017215;28;20341;-81
2021/11/01 13:24:24;;;;;;;30.17;18.30;;;;;;;;;;5017573;28;20037;-81
2021/11/01 13:27:11;;;;;;;35.38;19.67;;;;;;;;;;5017369;28;20034;-81
2021/11/01 13:37:44;;;;;;;32.13;21.30;;;;;;;;;;5017091;28;20345;-81
2021/11/01 13:40:11;;;;;;;40.85;24.95;;;;;;;;;;5017246;28;20018;-81
2021/11/01 13:42:39;;;;;;;35.20;22.85;;;;;;;;;;4999617;28;20022;-80
2021/11/01 13:45:08;;;;;;;31.60;21.30;;;;;;;;;;4999389;28;20042;-81
2021/11/01 13:47:47;;;;;;;37.03;23.23;;;;;;;;;;5019696;28;20026;-81
2021/11/01 13:50:18;;;;;;;32.28;23.27;;;;;;;;;;5020979;28;20025;-81
2021/11/01 13:53:25;;;;;;;31.98;21.38;;;;;;;;;;5021092;28;20047;-81
2021/11/01 13:56:05;;;;;;;28.85;20.98;;;;;;;;;;5020483;28;20026;-81
2021/11/01 13:58:34;;;;;;;29.25;19.98;;;;;;;;;;5020943;28;20078;-81
2021/11/01 14:17:28;;;;;;;38.53;25.67;;;;;;;;;;5020535;28;20018;-81
2021/11/01 14:20:32;;;;;;;36.85;21.63;;;;;;;;;;5020086;28;20088;-81
2021/11/01 15:21:18;;;;;;;60.17;34.80;;;;;;;;;;5038988;28;20046;-81
2021/11/01 15:37:41;;;;;;;75.57;42.95;;;;;;;;;;4958636;29;20019;-81
2021/11/01 16:18:08;;;;;;;142.48;85.50;;;;;;;;;;5038150;28;20116;-81
2021/11/01 16:20:34;;;;;;;103.22;66.32;;;;;;;;;;5037722;28;20128;-81
2021/11/01 16:25:31;;;;;;;94.85;51.78;;;;;;;;;;5037950;28;20029;-81
2021/11/01 16:27:57;;;;;;;105.13;56.47;;;;;;;;;;5019635;28;20033;-81
2021/11/01 16:30:26;;;;;;;119.13;62.80;;;;;;;;;;5037787;28;20030;-81
2021/11/01 16:32:58;;;;;;;118.28;66.68;;;;;;;;;;5019460;28;20033;-80
2021/11/01 16:35:31;;;;;;;128.15;67.05;;;;;;;;;;5037778;28;20453;-81
2021/11/01 16:38:14;;;;;;;135.85;68.07;;;;;;;;;;5037650;28;20041;-80
2021/11/01 16:40:43;;;;;;;139.60;67.65;;;;;;;;;;5037618;28;20064;-81
2021/11/01 16:43:14;;;;;;;116.32;63.10;;;;;;;;;;5037750;28;20080;-81
2021/11/01 16:45:41;;;;;;;118.95;60.95;;;;;;;;;;5037410;28;20109;-81
2021/11/01 16:48:08;;;;;;;92.72;48.83;;;;;;;;;;5037592;28;20060;-80
2021/11/01 16:50:35;;;;;;;83.10;46.83;;;;;;;;;;5019535;28;20029;-80
2021/11/01 16:53:01;;;;;;;81.53;48.03;;;;;;;;;;5037443;28;20404;-80
2021/11/01 16:55:32;;;;;;;90.28;51.88;;;;;;;;;;5037564;28;20408;-80
2021/11/01 16:58:01;;;;;;;91.45;51.75;;;;;;;;;;5019814;28;20026;-80
2021/11/01 17:00:34;;;;;;;91.35;52.60;;;;;;;;;;5037326;28;20021;-80
2021/11/01 17:22:36;;;;;;;91.43;52.97;;;;;;;;;;4825468;29;20045;-80
2021/11/01 18:45:28;;;;;;;71.28;42.30;;;;;;;;;;5040617;28;20034;-85
2021/11/01 18:53:44;;;;;;;82.82;45.70;;;;;;;;;;5040117;28;20029;-85
2021/11/01 18:56:12;;;;;;;74.35;44.63;;;;;;;;;;5022524;28;20026;-85
2021/11/01 18:58:40;;;;;;;73.10;43.55;;;;;;;;;;5022691;28;20076;-85
2021/11/01 19:01:10;;;;;;;70.88;42.67;;;;;;;;;;5022528;28;20025;-85
2021/11/01 19:03:43;;;;;;;65.28;41.97;;;;;;;;;;5022438;28;20025;-85
2021/11/01 19:06:33;;;;;;;64.55;40.10;;;;;;;;;;5040187;28;20029;-85
2021/11/01 19:09:25;;;;;;;63.95;39.75;;;;;;;;;;5039605;28;20076;-85
2021/11/01 20:13:00;;;;;;;;;;;;;;;;;;;;;
2021/11/01 21:24:59;;;;;;;51.50;32.75;;;;;;;;;;4957531;29;20078;-85
2021/11/01 21:27:16;;;;;;;48.80;31.55;;;;;;;;;;4957160;29;20031;-85
2021/11/01 21:29:42;;;;;;;53.55;33.35;;;;;;;;;;4941442;29;20043;-84
2021/11/01 21:32:08;;;;;;;47.22;31.88;;;;;;;;;;4957712;29;20034;-85
2021/11/01 21:34:41;;;;;;;55.30;33.75;;;;;;;;;;4957395;29;20055;-85
2021/11/01 21:37:44;;;;;;;50.35;31.73;;;;;;;;;;4941454;29;20027;-85
2021/11/01 21:40:11;;;;;;;47.28;30.85;;;;;;;;;;4957544;29;20114;-84
2021/11/01 21:42:37;;;;;;;48.58;31.55;;;;;;;;;;5030058;28;20036;-85
2021/11/01 21:45:04;;;;;;;43.55;29.75;;;;;;;;;;5037526;28;20075;-85
2021/11/01 21:47:30;;;;;;;47.25;30.85;;;;;;;;;;5036653;28;20021;-80
2021/11/01 21:49:56;;;;;;;50.38;31.50;;;;;;;;;;5036558;28;20030;-81
2021/11/01 21:52:23;;;;;;;54.72;34.00;;;;;;;;;;5036389;28;20048;-81
2021/11/01 21:54:57;;;;;;;47.40;31.60;;;;;;;;;;5036879;28;20021;-84
2021/11/01 22:00:19;;;;;;;52.88;34.15;;;;;;;;;;5037167;28;20030;-85
2021/11/01 22:24:55;;;;;;;47.78;31.80;;;;;;;;;;5021232;28;20033;-86
2021/11/01 22:41:11;;;;;;;48.03;31.55;;;;;;;;;;5040603;28;20029;-86
2021/11/01 22:56:50;;;;;;;47.47;30.35;;;;;;;;;;5040256;28;20048;-86
2021/11/01 22:59:17;;;;;;;52.97;32.63;;;;;;;;;;5039993;28;20030;-86
2021/11/01 23:01:45;;;;;;;51.92;31.52;;;;;;;;;;5040258;28;20029;-86
2021/11/01 23:32:15;;;;;;;49.30;28.08;;;;;;;;;;5039736;28;20067;-86
2021/11/01 23:34:41;;;;;;;46.38;30.42;;;;;;;;;;5039797;28;20324;-86
2021/11/01 23:37:07;;;;;;;44.67;28.85;;;;;;;;;;5039132;28;20028;-87
2021/11/01 23:39:33;;;;;;;43.47;28.23;;;;;;;;;;5021676;28;20317;-86
2021/11/01 23:41:59;;;;;;;47.83;31.02;;;;;;;;;;5039292;28;20029;-86
2021/11/01 23:44:25;;;;;;;45.35;28.65;;;;;;;;;;5021765;28;20431;-86
2021/11/01 23:46:51;;;;;;;45.05;29.75;;;;;;;;;;5021149;28;20428;-86
2021/11/01 23:49:18;;;;;;;49.20;30.08;;;;;;;;;;5039385;28;20297;-85
2021/11/01 23:51:58;;;;;;;51.75;29.80;;;;;;;;;;5021281;28;20080;-85
2021/11/01 23:54:36;;;;;;;46.80;29.90;;;;;;;;;;5039111;28;20018;-86
2021/11/01 23:57:02;;;;;;;52.42;30.77;;;;;;;;;;5021150;28;20056;-85
2021/11/01 23:59:28;;;;;;;47.38;30.23;;;;;;;;;;5038472;28;20060;-85
